sensor_id;sensor_type;location;lat;lon;timestamp;P1;durP1;ratioP1;P2;durP2;ratioP2
23434;SDS011;11890;45.380;11.028;2023-06-22T00:00:31;17.58;;;9.13;;
23434;SDS011;11890;45.380;11.028;2023-06-22T00:02:59;17.17;;;9.50;;
23434;SDS011;11890;45.380;11.028;2023-06-22T00:05:27;17.98;;;10.18;;
23434;SDS011;11890;45.380;11.028;2023-06-22T00:07:54;21.15;;;10.38;;
23434;SDS011;11890;45.380;11.028;2023-06-22T00:10:22;17.63;;;10.93;;
23434;SDS011;11890;45.380;11.028;2023-06-22T00:12:50;14.93;;;11.48;;
23434;SDS011;11890;45.380;11.028;2023-06-22T00:15:18;18.38;;;10.77;;
23434;SDS011;11890;45.380;11.028;2023-06-22T00:17:46;18.05;;;10.10;;
23434;SDS011;11890;45.380;11.028;2023-06-22T00:20:14;17.00;;;11.00;;
23434;SDS011;11890;45.380;11.028;2023-06-22T00:22:42;15.98;;;10.32;;
23434;SDS011;11890;45.380;11.028;2023-06-22T00:25:10;17.55;;;10.43;;
23434;SDS011;11890;45.380;11.028;2023-06-22T00:27:38;15.38;;;10.40;;
23434;SDS011;11890;45.380;11.028;2023-06-22T00:34:24;20.73;;;10.07;;
23434;SDS011;11890;45.380;11.028;2023-06-22T00:36:52;17.42;;;10.02;;
23434;SDS011;11890;45.380;11.028;2023-06-22T00:39:20;18.40;;;10.40;;
23434;SDS011;11890;45.380;11.028;2023-06-22T00:41:50;17.58;;;10.35;;
23434;SDS011;11890;45.380;11.028;2023-06-22T00:44:18;19.90;;;10.63;;
23434;SDS011;11890;45.380;11.028;2023-06-22T00:46:45;12.82;;;10.05;;
23434;SDS011;11890;45.380;11.028;2023-06-22T00:49:13;18.08;;;10.15;;
23434;SDS011;11890;45.380;11.028;2023-06-22T00:51:41;15.82;;;10.55;;
23434;SDS011;11890;45.380;11.028;2023-06-22T00:54:12;21.38;;;11.23;;
23434;SDS011;11890;45.380;11.028;2023-06-22T00:56:40;19.83;;;11.52;;
23434;SDS011;11890;45.380;11.028;2023-06-22T00:59:09;20.35;;;11.45;;
23434;SDS011;11890;45.380;11.028;2023-06-22T01:01:39;17.40;;;10.60;;
23434;SDS011;11890;45.380;11.028;2023-06-22T01:04:07;17.27;;;9.90;;
23434;SDS011;11890;45.380;11.028;2023-06-22T01:06:42;17.25;;;10.73;;
23434;SDS011;11890;45.380;11.028;2023-06-22T01:09:26;15.48;;;10.48;;
23434;SDS011;11890;45.380;11.028;2023-06-22T01:11:55;19.73;;;10.35;;
23434;SDS011;11890;45.380;11.028;2023-06-22T01:14:40;14.82;;;11.00;;
23434;SDS011;11890;45.380;11.028;2023-06-22T01:17:09;17.17;;;10.75;;
23434;SDS011;11890;45.380;11.028;2023-06-22T01:22:15;17.67;;;12.30;;
23434;SDS011;11890;45.380;11.028;2023-06-22T01:24:47;20.92;;;11.57;;
23434;SDS011;11890;45.380;11.028;2023-06-22T01:29:43;14.13;;;10.10;;
23434;SDS011;11890;45.380;11.028;2023-06-22T01:32:12;20.35;;;11.35;;
23434;SDS011;11890;45.380;11.028;2023-06-22T01:34:40;17.70;;;11.13;;
23434;SDS011;11890;45.380;11.028;2023-06-22T01:37:08;19.80;;;11.23;;
23434;SDS011;11890;45.380;11.028;2023-06-22T01:39:36;18.63;;;12.27;;
23434;SDS011;11890;45.380;11.028;2023-06-22T01:42:04;16.67;;;10.93;;
23434;SDS011;11890;45.380;11.028;2023-06-22T01:44:33;16.95;;;11.13;;
23434;SDS011;11890;45.380;11.028;2023-06-22T01:47:01;17.10;;;10.95;;
23434;SDS011;11890;45.380;11.028;2023-06-22T01:49:29;14.68;;;9.77;;
23434;SDS011;11890;45.380;11.028;2023-06-22T01:51:57;16.40;;;10.48;;
23434;SDS011;11890;45.380;11.028;2023-06-22T01:54:27;15.52;;;11.18;;
23434;SDS011;11890;45.380;11.028;2023-06-22T01:56:55;20.98;;;12.75;;
23434;SDS011;11890;45.380;11.028;2023-06-22T02:02:01;21.38;;;12.88;;
23434;SDS011;11890;45.380;11.028;2023-06-22T02:04:33;19.95;;;12.65;;
23434;SDS011;11890;45.380;11.028;2023-06-22T02:07:02;17.57;;;12.80;;
23434;SDS011;11890;45.380;11.028;2023-06-22T02:09:33;23.33;;;13.85;;
23434;SDS011;11890;45.380;11.028;2023-06-22T02:12:02;22.85;;;13.63;;
23434;SDS011;11890;45.380;11.028;2023-06-22T02:14:30;19.63;;;12.70;;
23434;SDS011;11890;45.380;11.028;2023-06-22T02:16:58;16.75;;;12.68;;
23434;SDS011;11890;45.380;11.028;2023-06-22T02:19:27;23.13;;;13.98;;
23434;SDS011;11890;45.380;11.028;2023-06-22T02:21:55;21.45;;;13.18;;
23434;SDS011;11890;45.380;11.028;2023-06-22T02:24:22;18.23;;;13.80;;
23434;SDS011;11890;45.380;11.028;2023-06-22T02:26:50;24.38;;;14.23;;
23434;SDS011;11890;45.380;11.028;2023-06-22T02:29:18;22.55;;;13.15;;
23434;SDS011;11890;45.380;11.028;2023-06-22T02:31:46;23.52;;;12.70;;
23434;SDS011;11890;45.380;11.028;2023-06-22T02:34:14;19.02;;;12.98;;
23434;SDS011;11890;45.380;11.028;2023-06-22T02:36:45;18.85;;;12.63;;
23434;SDS011;11890;45.380;11.028;2023-06-22T02:39:19;23.58;;;13.82;;
23434;SDS011;11890;45.380;11.028;2023-06-22T02:41:47;23.33;;;13.05;;
23434;SDS011;11890;45.380;11.028;2023-06-22T02:44:15;20.25;;;13.02;;
23434;SDS011;11890;45.380;11.028;2023-06-22T02:50:48;25.27;;;13.32;;
23434;SDS011;11890;45.380;11.028;2023-06-22T02:53:15;25.85;;;12.88;;
23434;SDS011;11890;45.380;11.028;2023-06-22T02:55:46;21.05;;;13.02;;
23434;SDS011;11890;45.380;11.028;2023-06-22T02:58:14;19.40;;;12.13;;
23434;SDS011;11890;45.380;11.028;2023-06-22T03:00:42;19.83;;;12.80;;
23434;SDS011;11890;45.380;11.028;2023-06-22T03:03:10;22.45;;;13.00;;
23434;SDS011;11890;45.380;11.028;2023-06-22T03:05:38;16.73;;;11.35;;
23434;SDS011;11890;45.380;11.028;2023-06-22T03:08:07;21.13;;;12.95;;
23434;SDS011;11890;45.380;11.028;2023-06-22T03:10:36;23.15;;;11.98;;
23434;SDS011;11890;45.380;11.028;2023-06-22T03:13:04;20.63;;;12.18;;
23434;SDS011;11890;45.380;11.028;2023-06-22T03:15:32;19.38;;;11.57;;
23434;SDS011;11890;45.380;11.028;2023-06-22T03:18:00;16.77;;;11.10;;
23434;SDS011;11890;45.380;11.028;2023-06-22T03:20:28;22.08;;;11.48;;
23434;SDS011;11890;45.380;11.028;2023-06-22T03:23:00;17.60;;;11.25;;
23434;SDS011;11890;45.380;11.028;2023-06-22T03:25:28;19.00;;;11.35;;
23434;SDS011;11890;45.380;11.028;2023-06-22T03:27:56;20.02;;;11.05;;
23434;SDS011;11890;45.380;11.028;2023-06-22T03:30:25;18.15;;;10.60;;
23434;SDS011;11890;45.380;11.028;2023-06-22T03:32:54;18.45;;;10.85;;
23434;SDS011;11890;45.380;11.028;2023-06-22T03:35:22;19.02;;;10.88;;
23434;SDS011;11890;45.380;11.028;2023-06-22T03:50:39;19.45;;;9.80;;
23434;SDS011;11890;45.380;11.028;2023-06-22T03:53:06;17.15;;;10.80;;
23434;SDS011;11890;45.380;11.028;2023-06-22T03:55:34;15.10;;;9.38;;
23434;SDS011;11890;45.380;11.028;2023-06-22T03:58:02;17.48;;;9.43;;
23434;SDS011;11890;45.380;11.028;2023-06-22T04:00:32;19.00;;;9.35;;
23434;SDS011;11890;45.380;11.028;2023-06-22T04:03:00;16.45;;;10.13;;
23434;SDS011;11890;45.380;11.028;2023-06-22T04:05:28;18.17;;;9.10;;
23434;SDS011;11890;45.380;11.028;2023-06-22T04:07:56;17.17;;;9.68;;
23434;SDS011;11890;45.380;11.028;2023-06-22T04:10:24;18.25;;;9.57;;
23434;SDS011;11890;45.380;11.028;2023-06-22T04:12:52;24.33;;;10.77;;
23434;SDS011;11890;45.380;11.028;2023-06-22T04:15:20;18.58;;;9.10;;
23434;SDS011;11890;45.380;11.028;2023-06-22T04:17:50;12.35;;;8.88;;
23434;SDS011;11890;45.380;11.028;2023-06-22T04:20:18;23.00;;;9.57;;
23434;SDS011;11890;45.380;11.028;2023-06-22T04:22:48;20.00;;;9.23;;
23434;SDS011;11890;45.380;11.028;2023-06-22T04:25:16;18.98;;;9.43;;
23434;SDS011;11890;45.380;11.028;2023-06-22T04:27:44;17.02;;;9.48;;
23434;SDS011;11890;45.380;11.028;2023-06-22T04:30:14;15.02;;;8.48;;
23434;SDS011;11890;45.380;11.028;2023-06-22T04:32:43;17.95;;;9.57;;
23434;SDS011;11890;45.380;11.028;2023-06-22T04:35:13;15.93;;;8.98;;
23434;SDS011;11890;45.380;11.028;2023-06-22T04:37:42;19.42;;;9.20;;
23434;SDS011;11890;45.380;11.028;2023-06-22T04:40:13;18.48;;;9.10;;
23434;SDS011;11890;45.380;11.028;2023-06-22T04:42:41;18.88;;;8.82;;
23434;SDS011;11890;45.380;11.028;2023-06-22T04:45:19;20.23;;;9.68;;
23434;SDS011;11890;45.380;11.028;2023-06-22T04:47:49;18.80;;;10.18;;
23434;SDS011;11890;45.380;11.028;2023-06-22T04:50:17;19.85;;;9.40;;
23434;SDS011;11890;45.380;11.028;2023-06-22T04:52:47;22.40;;;10.18;;
23434;SDS011;11890;45.380;11.028;2023-06-22T04:55:15;18.73;;;9.73;;
23434;SDS011;11890;45.380;11.028;2023-06-22T04:57:47;17.73;;;10.60;;
23434;SDS011;11890;45.380;11.028;2023-06-22T05:00:23;28.52;;;16.35;;
23434;SDS011;11890;45.380;11.028;2023-06-22T05:02:53;21.48;;;10.60;;
23434;SDS011;11890;45.380;11.028;2023-06-22T05:05:32;19.85;;;10.90;;
23434;SDS011;11890;45.380;11.028;2023-06-22T05:08:00;20.05;;;9.95;;
23434;SDS011;11890;45.380;11.028;2023-06-22T05:10:32;18.48;;;10.15;;
23434;SDS011;11890;45.380;11.028;2023-06-22T05:13:31;15.20;;;9.90;;
23434;SDS011;11890;45.380;11.028;2023-06-22T05:16:11;23.95;;;16.50;;
23434;SDS011;11890;45.380;11.028;2023-06-22T05:18:53;34.67;;;23.25;;
23434;SDS011;11890;45.380;11.028;2023-06-22T05:21:27;23.45;;;12.95;;
23434;SDS011;11890;45.380;11.028;2023-06-22T05:28:30;23.27;;;12.82;;
23434;SDS011;11890;45.380;11.028;2023-06-22T05:31:15;26.02;;;14.20;;
23434;SDS011;11890;45.380;11.028;2023-06-22T05:33:43;22.08;;;11.40;;
23434;SDS011;11890;45.380;11.028;2023-06-22T05:37:02;28.40;;;11.98;;
23434;SDS011;11890;45.380;11.028;2023-06-22T05:39:32;45.78;;;27.88;;
23434;SDS011;11890;45.380;11.028;2023-06-22T05:42:00;24.48;;;13.63;;
23434;SDS011;11890;45.380;11.028;2023-06-22T05:44:28;29.05;;;14.75;;
23434;SDS011;11890;45.380;11.028;2023-06-22T05:46:57;22.48;;;13.93;;
23434;SDS011;11890;45.380;11.028;2023-06-22T05:49:25;28.52;;;14.27;;
23434;SDS011;11890;45.380;11.028;2023-06-22T05:52:02;23.50;;;12.93;;
23434;SDS011;11890;45.380;11.028;2023-06-22T05:54:33;24.60;;;13.45;;
23434;SDS011;11890;45.380;11.028;2023-06-22T05:57:09;18.35;;;10.88;;
23434;SDS011;11890;45.380;11.028;2023-06-22T05:59:43;20.55;;;10.27;;
23434;SDS011;11890;45.380;11.028;2023-06-22T06:02:43;18.75;;;10.95;;
23434;SDS011;11890;45.380;11.028;2023-06-22T06:05:15;24.95;;;14.57;;
23434;SDS011;11890;45.380;11.028;2023-06-22T06:07:44;17.95;;;9.45;;
23434;SDS011;11890;45.380;11.028;2023-06-22T06:10:14;19.40;;;7.95;;
23434;SDS011;11890;45.380;11.028;2023-06-22T06:12:45;13.75;;;8.02;;
23434;SDS011;11890;45.380;11.028;2023-06-22T06:15:17;15.45;;;8.05;;
23434;SDS011;11890;45.380;11.028;2023-06-22T06:17:49;16.40;;;7.70;;
23434;SDS011;11890;45.380;11.028;2023-06-22T06:20:18;11.70;;;7.63;;
23434;SDS011;11890;45.380;11.028;2023-06-22T06:22:47;13.52;;;7.63;;
23434;SDS011;11890;45.380;11.028;2023-06-22T06:25:15;16.52;;;7.55;;
23434;SDS011;11890;45.380;11.028;2023-06-22T06:27:43;15.63;;;8.10;;
23434;SDS011;11890;45.380;11.028;2023-06-22T06:30:12;16.75;;;8.40;;
23434;SDS011;11890;45.380;11.028;2023-06-22T06:32:41;16.88;;;8.65;;
23434;SDS011;11890;45.380;11.028;2023-06-22T06:35:09;15.73;;;8.10;;
23434;SDS011;11890;45.380;11.028;2023-06-22T06:37:41;22.30;;;8.93;;
23434;SDS011;11890;45.380;11.028;2023-06-22T06:40:11;17.30;;;8.47;;
23434;SDS011;11890;45.380;11.028;2023-06-22T06:42:40;13.23;;;7.70;;
23434;SDS011;11890;45.380;11.028;2023-06-22T06:45:09;17.17;;;8.32;;
23434;SDS011;11890;45.380;11.028;2023-06-22T06:47:37;12.65;;;7.68;;
23434;SDS011;11890;45.380;11.028;2023-06-22T06:50:07;18.08;;;9.02;;
23434;SDS011;11890;45.380;11.028;2023-06-22T06:52:35;16.67;;;8.85;;
23434;SDS011;11890;45.380;11.028;2023-06-22T06:55:05;17.13;;;9.35;;
23434;SDS011;11890;45.380;11.028;2023-06-22T06:57:37;13.32;;;8.50;;
23434;SDS011;11890;45.380;11.028;2023-06-22T07:00:05;17.35;;;8.65;;
23434;SDS011;11890;45.380;11.028;2023-06-22T07:02:39;16.00;;;8.80;;
23434;SDS011;11890;45.380;11.028;2023-06-22T07:05:08;17.50;;;9.57;;
23434;SDS011;11890;45.380;11.028;2023-06-22T07:07:36;20.08;;;8.93;;
23434;SDS011;11890;45.380;11.028;2023-06-22T07:10:05;12.10;;;8.48;;
23434;SDS011;11890;45.380;11.028;2023-06-22T07:12:33;23.52;;;8.98;;
23434;SDS011;11890;45.380;11.028;2023-06-22T07:15:05;13.75;;;8.77;;
23434;SDS011;11890;45.380;11.028;2023-06-22T07:17:35;19.02;;;7.82;;
23434;SDS011;11890;45.380;11.028;2023-06-22T07:20:04;16.20;;;8.98;;
23434;SDS011;11890;45.380;11.028;2023-06-22T07:22:41;17.63;;;8.32;;
23434;SDS011;11890;45.380;11.028;2023-06-22T07:25:13;18.35;;;9.02;;
23434;SDS011;11890;45.380;11.028;2023-06-22T07:27:45;15.57;;;8.75;;
23434;SDS011;11890;45.380;11.028;2023-06-22T07:30:14;15.93;;;8.55;;
23434;SDS011;11890;45.380;11.028;2023-06-22T07:32:42;21.17;;;9.88;;
23434;SDS011;11890;45.380;11.028;2023-06-22T07:35:10;16.35;;;10.25;;
23434;SDS011;11890;45.380;11.028;2023-06-22T07:37:38;18.55;;;10.10;;
23434;SDS011;11890;45.380;11.028;2023-06-22T07:40:06;20.73;;;9.93;;
23434;SDS011;11890;45.380;11.028;2023-06-22T07:42:34;19.65;;;8.38;;
23434;SDS011;11890;45.380;11.028;2023-06-22T07:45:03;20.00;;;9.73;;
23434;SDS011;11890;45.380;11.028;2023-06-22T07:47:31;26.90;;;9.40;;
23434;SDS011;11890;45.380;11.028;2023-06-22T07:50:02;20.98;;;9.20;;
23434;SDS011;11890;45.380;11.028;2023-06-22T07:52:31;25.05;;;9.88;;
23434;SDS011;11890;45.380;11.028;2023-06-22T07:54:59;23.30;;;9.98;;
23434;SDS011;11890;45.380;11.028;2023-06-22T07:57:27;16.30;;;8.88;;
23434;SDS011;11890;45.380;11.028;2023-06-22T08:00:02;19.65;;;9.20;;
23434;SDS011;11890;45.380;11.028;2023-06-22T08:02:38;18.33;;;10.20;;
23434;SDS011;11890;45.380;11.028;2023-06-22T08:05:07;20.90;;;9.50;;
23434;SDS011;11890;45.380;11.028;2023-06-22T08:07:48;16.77;;;9.05;;
23434;SDS011;11890;45.380;11.028;2023-06-22T08:10:16;17.48;;;9.25;;
23434;SDS011;11890;45.380;11.028;2023-06-22T08:12:44;19.80;;;10.15;;
23434;SDS011;11890;45.380;11.028;2023-06-22T08:15:12;17.70;;;9.73;;
23434;SDS011;11890;45.380;11.028;2023-06-22T08:17:40;18.65;;;9.23;;
23434;SDS011;11890;45.380;11.028;2023-06-22T08:20:08;17.63;;;9.30;;
23434;SDS011;11890;45.380;11.028;2023-06-22T08:22:37;16.73;;;9.90;;
23434;SDS011;11890;45.380;11.028;2023-06-22T08:25:05;21.25;;;10.32;;
23434;SDS011;11890;45.380;11.028;2023-06-22T08:27:33;18.25;;;10.50;;
23434;SDS011;11890;45.380;11.028;2023-06-22T08:30:02;24.60;;;13.88;;
23434;SDS011;11890;45.380;11.028;2023-06-22T08:32:30;25.75;;;13.05;;
23434;SDS011;11890;45.380;11.028;2023-06-22T08:35:01;19.13;;;12.50;;
23434;SDS011;11890;45.380;11.028;2023-06-22T08:37:30;24.63;;;12.48;;
23434;SDS011;11890;45.380;11.028;2023-06-22T08:39:59;19.20;;;11.30;;
23434;SDS011;11890;45.380;11.028;2023-06-22T08:42:36;21.35;;;11.63;;
23434;SDS011;11890;45.380;11.028;2023-06-22T08:45:05;21.63;;;11.73;;
23434;SDS011;11890;45.380;11.028;2023-06-22T08:47:33;21.27;;;10.65;;
23434;SDS011;11890;45.380;11.028;2023-06-22T08:50:01;20.33;;;9.55;;
23434;SDS011;11890;45.380;11.028;2023-06-22T08:52:32;19.52;;;11.30;;
23434;SDS011;11890;45.380;11.028;2023-06-22T08:55:00;25.13;;;13.07;;
23434;SDS011;11890;45.380;11.028;2023-06-22T08:57:28;18.60;;;12.10;;
23434;SDS011;11890;45.380;11.028;2023-06-22T08:59:57;20.38;;;10.95;;
23434;SDS011;11890;45.380;11.028;2023-06-22T09:02:26;21.33;;;12.77;;
23434;SDS011;11890;45.380;11.028;2023-06-22T09:04:58;19.98;;;11.88;;
23434;SDS011;11890;45.380;11.028;2023-06-22T09:07:30;21.02;;;11.98;;
23434;SDS011;11890;45.380;11.028;2023-06-22T09:09:58;19.20;;;11.27;;
23434;SDS011;11890;45.380;11.028;2023-06-22T09:12:30;24.35;;;12.25;;
23434;SDS011;11890;45.380;11.028;2023-06-22T09:15:00;14.55;;;10.02;;
23434;SDS011;11890;45.380;11.028;2023-06-22T09:17:28;18.27;;;10.85;;
23434;SDS011;11890;45.380;11.028;2023-06-22T09:19:56;19.33;;;10.30;;
23434;SDS011;11890;45.380;11.028;2023-06-22T09:22:23;26.27;;;10.15;;
23434;SDS011;11890;45.380;11.028;2023-06-22T09:24:55;18.00;;;10.13;;
23434;SDS011;11890;45.380;11.028;2023-06-22T09:27:23;17.50;;;10.73;;
23434;SDS011;11890;45.380;11.028;2023-06-22T09:29:51;15.88;;;9.07;;
23434;SDS011;11890;45.380;11.028;2023-06-22T09:32:19;20.13;;;10.82;;
23434;SDS011;11890;45.380;11.028;2023-06-22T09:34:47;20.52;;;10.25;;
23434;SDS011;11890;45.380;11.028;2023-06-22T09:37:15;18.38;;;9.60;;
23434;SDS011;11890;45.380;11.028;2023-06-22T09:39:43;16.23;;;9.55;;
23434;SDS011;11890;45.380;11.028;2023-06-22T09:42:29;14.95;;;9.43;;
23434;SDS011;11890;45.380;11.028;2023-06-22T09:44:57;13.02;;;10.38;;
23434;SDS011;11890;45.380;11.028;2023-06-22T09:47:25;16.30;;;9.45;;
23434;SDS011;11890;45.380;11.028;2023-06-22T09:49:53;21.10;;;10.57;;
23434;SDS011;11890;45.380;11.028;2023-06-22T09:52:22;21.40;;;9.60;;
23434;SDS011;11890;45.380;11.028;2023-06-22T09:54:59;17.25;;;9.52;;
23434;SDS011;11890;45.380;11.028;2023-06-22T09:57:28;15.60;;;9.30;;
23434;SDS011;11890;45.380;11.028;2023-06-22T09:59:56;23.85;;;10.13;;
23434;SDS011;11890;45.380;11.028;2023-06-22T10:02:24;11.50;;;8.43;;
23434;SDS011;11890;45.380;11.028;2023-06-22T10:04:52;15.45;;;9.73;;
23434;SDS011;11890;45.380;11.028;2023-06-22T10:07:20;15.73;;;9.25;;
23434;SDS011;11890;45.380;11.028;2023-06-22T10:09:48;15.98;;;8.60;;
23434;SDS011;11890;45.380;11.028;2023-06-22T10:12:16;21.00;;;9.82;;
23434;SDS011;11890;45.380;11.028;2023-06-22T10:14:44;19.05;;;11.95;;
23434;SDS011;11890;45.380;11.028;2023-06-22T10:17:12;15.70;;;9.50;;
23434;SDS011;11890;45.380;11.028;2023-06-22T10:19:40;20.92;;;9.60;;
23434;SDS011;11890;45.380;11.028;2023-06-22T10:22:08;19.83;;;9.52;;
23434;SDS011;11890;45.380;11.028;2023-06-22T10:24:36;14.27;;;8.85;;
23434;SDS011;11890;45.380;11.028;2023-06-22T10:27:05;24.20;;;8.93;;
23434;SDS011;11890;45.380;11.028;2023-06-22T10:29:33;14.00;;;9.45;;
23434;SDS011;11890;45.380;11.028;2023-06-22T10:32:01;15.48;;;9.48;;
23434;SDS011;11890;45.380;11.028;2023-06-22T10:34:29;15.88;;;9.63;;
23434;SDS011;11890;45.380;11.028;2023-06-22T10:37:00;14.43;;;9.02;;
23434;SDS011;11890;45.380;11.028;2023-06-22T10:39:28;17.02;;;8.85;;
23434;SDS011;11890;45.380;11.028;2023-06-22T10:41:56;18.13;;;9.23;;
23434;SDS011;11890;45.380;11.028;2023-06-22T10:44:24;20.13;;;11.02;;
23434;SDS011;11890;45.380;11.028;2023-06-22T10:46:52;26.13;;;13.75;;
23434;SDS011;11890;45.380;11.028;2023-06-22T10:49:20;16.70;;;13.00;;
23434;SDS011;11890;45.380;11.028;2023-06-22T10:51:47;16.65;;;10.05;;
23434;SDS011;11890;45.380;11.028;2023-06-22T10:54:15;18.95;;;9.35;;
23434;SDS011;11890;45.380;11.028;2023-06-22T10:56:45;13.43;;;9.38;;
23434;SDS011;11890;45.380;11.028;2023-06-22T10:59:13;18.33;;;9.27;;
23434;SDS011;11890;45.380;11.028;2023-06-22T11:01:40;28.35;;;19.10;;
23434;SDS011;11890;45.380;11.028;2023-06-22T11:04:08;25.85;;;14.45;;
23434;SDS011;11890;45.380;11.028;2023-06-22T11:06:39;22.33;;;10.82;;
23434;SDS011;11890;45.380;11.028;2023-06-22T11:09:09;14.88;;;8.30;;
23434;SDS011;11890;45.380;11.028;2023-06-22T11:11:46;16.25;;;9.68;;
23434;SDS011;11890;45.380;11.028;2023-06-22T11:14:31;17.17;;;8.60;;
23434;SDS011;11890;45.380;11.028;2023-06-22T11:18:10;14.70;;;8.98;;
23434;SDS011;11890;45.380;11.028;2023-06-22T11:25:01;15.27;;;9.43;;
23434;SDS011;11890;45.380;11.028;2023-06-22T11:27:33;17.20;;;9.57;;
23434;SDS011;11890;45.380;11.028;2023-06-22T11:30:01;19.73;;;10.00;;
23434;SDS011;11890;45.380;11.028;2023-06-22T11:32:30;15.07;;;9.35;;
23434;SDS011;11890;45.380;11.028;2023-06-22T11:35:01;18.98;;;8.80;;
23434;SDS011;11890;45.380;11.028;2023-06-22T11:37:29;17.95;;;9.00;;
23434;SDS011;11890;45.380;11.028;2023-06-22T11:39:57;17.40;;;9.07;;
23434;SDS011;11890;45.380;11.028;2023-06-22T11:42:33;14.82;;;8.80;;
23434;SDS011;11890;45.380;11.028;2023-06-22T11:45:01;17.70;;;9.52;;
23434;SDS011;11890;45.380;11.028;2023-06-22T11:47:29;17.95;;;9.55;;
23434;SDS011;11890;45.380;11.028;2023-06-22T11:49:57;17.23;;;8.52;;
23434;SDS011;11890;45.380;11.028;2023-06-22T11:52:27;16.40;;;8.68;;
23434;SDS011;11890;45.380;11.028;2023-06-22T11:54:58;17.65;;;9.70;;
23434;SDS011;11890;45.380;11.028;2023-06-22T11:57:26;16.13;;;10.35;;
23434;SDS011;11890;45.380;11.028;2023-06-22T11:59:54;19.95;;;9.18;;
23434;SDS011;11890;45.380;11.028;2023-06-22T12:02:24;17.48;;;9.18;;
23434;SDS011;11890;45.380;11.028;2023-06-22T12:04:52;13.98;;;9.13;;
23434;SDS011;11890;45.380;11.028;2023-06-22T12:07:23;19.08;;;9.20;;
23434;SDS011;11890;45.380;11.028;2023-06-22T12:09:51;14.77;;;9.00;;
23434;SDS011;11890;45.380;11.028;2023-06-22T12:12:19;20.80;;;9.23;;
23434;SDS011;11890;45.380;11.028;2023-06-22T12:14:46;14.75;;;9.13;;
23434;SDS011;11890;45.380;11.028;2023-06-22T12:17:14;14.50;;;8.13;;
23434;SDS011;11890;45.380;11.028;2023-06-22T12:19:42;14.70;;;8.43;;
23434;SDS011;11890;45.380;11.028;2023-06-22T12:22:19;15.90;;;8.35;;
23434;SDS011;11890;45.380;11.028;2023-06-22T12:24:47;18.85;;;8.63;;
23434;SDS011;11890;45.380;11.028;2023-06-22T12:27:16;11.98;;;7.78;;
23434;SDS011;11890;45.380;11.028;2023-06-22T12:29:47;18.38;;;8.25;;
23434;SDS011;11890;45.380;11.028;2023-06-22T12:32:15;22.83;;;9.20;;
23434;SDS011;11890;45.380;11.028;2023-06-22T12:34:43;16.00;;;8.07;;
23434;SDS011;11890;45.380;11.028;2023-06-22T12:37:11;14.10;;;7.65;;
23434;SDS011;11890;45.380;11.028;2023-06-22T12:39:40;13.52;;;7.80;;
23434;SDS011;11890;45.380;11.028;2023-06-22T12:42:08;14.05;;;7.40;;
23434;SDS011;11890;45.380;11.028;2023-06-22T12:44:38;11.68;;;8.07;;
23434;SDS011;11890;45.380;11.028;2023-06-22T12:47:06;18.17;;;8.40;;
23434;SDS011;11890;45.380;11.028;2023-06-22T12:49:37;14.13;;;8.07;;
23434;SDS011;11890;45.380;11.028;2023-06-22T12:52:08;13.30;;;8.20;;
23434;SDS011;11890;45.380;11.028;2023-06-22T12:54:37;15.82;;;8.40;;
23434;SDS011;11890;45.380;11.028;2023-06-22T12:57:20;13.82;;;8.10;;
23434;SDS011;11890;45.380;11.028;2023-06-22T12:59:48;13.38;;;7.63;;
23434;SDS011;11890;45.380;11.028;2023-06-22T13:02:16;13.38;;;7.65;;
23434;SDS011;11890;45.380;11.028;2023-06-22T13:04:44;13.65;;;7.32;;
23434;SDS011;11890;45.380;11.028;2023-06-22T13:07:12;15.00;;;7.22;;
23434;SDS011;11890;45.380;11.028;2023-06-22T13:09:49;12.02;;;7.10;;
23434;SDS011;11890;45.380;11.028;2023-06-22T13:12:20;17.58;;;7.15;;
23434;SDS011;11890;45.380;11.028;2023-06-22T13:14:48;14.15;;;7.40;;
23434;SDS011;11890;45.380;11.028;2023-06-22T13:17:16;13.00;;;6.65;;
23434;SDS011;11890;45.380;11.028;2023-06-22T13:19:44;11.60;;;6.47;;
23434;SDS011;11890;45.380;11.028;2023-06-22T13:25:12;9.70;;;6.60;;
23434;SDS011;11890;45.380;11.028;2023-06-22T13:27:41;12.75;;;6.20;;
23434;SDS011;11890;45.380;11.028;2023-06-22T13:33:17;12.70;;;6.55;;
23434;SDS011;11890;45.380;11.028;2023-06-22T13:35:45;10.63;;;6.68;;
23434;SDS011;11890;45.380;11.028;2023-06-22T13:38:14;11.57;;;7.15;;
23434;SDS011;11890;45.380;11.028;2023-06-22T13:40:46;10.38;;;7.60;;
23434;SDS011;11890;45.380;11.028;2023-06-22T13:43:16;15.82;;;7.93;;
23434;SDS011;11890;45.380;11.028;2023-06-22T13:45:44;14.57;;;7.03;;
23434;SDS011;11890;45.380;11.028;2023-06-22T13:48:12;12.60;;;7.03;;
23434;SDS011;11890;45.380;11.028;2023-06-22T13:50:40;13.15;;;7.75;;
23434;SDS011;11890;45.380;11.028;2023-06-22T13:53:08;11.02;;;7.60;;
23434;SDS011;11890;45.380;11.028;2023-06-22T13:55:40;11.63;;;8.38;;
23434;SDS011;11890;45.380;11.028;2023-06-22T13:58:13;15.48;;;8.50;;
23434;SDS011;11890;45.380;11.028;2023-06-22T14:00:41;16.30;;;8.57;;
23434;SDS011;11890;45.380;11.028;2023-06-22T14:03:09;13.50;;;8.20;;
23434;SDS011;11890;45.380;11.028;2023-06-22T14:05:37;14.18;;;7.90;;
23434;SDS011;11890;45.380;11.028;2023-06-22T14:08:05;18.10;;;8.07;;
23434;SDS011;11890;45.380;11.028;2023-06-22T14:14:16;14.13;;;8.50;;
23434;SDS011;11890;45.380;11.028;2023-06-22T14:16:43;24.75;;;9.13;;
23434;SDS011;11890;45.380;11.028;2023-06-22T14:19:11;14.43;;;8.80;;
23434;SDS011;11890;45.380;11.028;2023-06-22T14:21:39;12.13;;;8.35;;
23434;SDS011;11890;45.380;11.028;2023-06-22T14:24:07;15.88;;;7.72;;
23434;SDS011;11890;45.380;11.028;2023-06-22T14:26:35;15.27;;;8.13;;
23434;SDS011;11890;45.380;11.028;2023-06-22T14:29:04;12.45;;;7.80;;
23434;SDS011;11890;45.380;11.028;2023-06-22T14:31:32;13.20;;;7.68;;
23434;SDS011;11890;45.380;11.028;2023-06-22T14:34:00;12.68;;;7.82;;
23434;SDS011;11890;45.380;11.028;2023-06-22T14:36:30;14.02;;;7.22;;
23434;SDS011;11890;45.380;11.028;2023-06-22T14:38:58;14.25;;;8.10;;
23434;SDS011;11890;45.380;11.028;2023-06-22T14:41:25;11.13;;;7.03;;
23434;SDS011;11890;45.380;11.028;2023-06-22T14:43:53;9.65;;;7.50;;
23434;SDS011;11890;45.380;11.028;2023-06-22T14:46:21;17.80;;;7.85;;
23434;SDS011;11890;45.380;11.028;2023-06-22T14:48:49;15.05;;;7.32;;
23434;SDS011;11890;45.380;11.028;2023-06-22T14:51:17;13.57;;;6.82;;
23434;SDS011;11890;45.380;11.028;2023-06-22T14:53:45;14.48;;;7.78;;
23434;SDS011;11890;45.380;11.028;2023-06-22T14:56:13;12.77;;;7.32;;
23434;SDS011;11890;45.380;11.028;2023-06-22T14:58:43;10.38;;;6.60;;
23434;SDS011;11890;45.380;11.028;2023-06-22T15:01:13;11.57;;;7.00;;
23434;SDS011;11890;45.380;11.028;2023-06-22T15:03:41;13.60;;;7.47;;
23434;SDS011;11890;45.380;11.028;2023-06-22T15:06:09;12.05;;;6.90;;
23434;SDS011;11890;45.380;11.028;2023-06-22T15:08:38;13.50;;;7.30;;
23434;SDS011;11890;45.380;11.028;2023-06-22T15:11:06;11.27;;;6.63;;
23434;SDS011;11890;45.380;11.028;2023-06-22T15:13:34;8.30;;;6.10;;
23434;SDS011;11890;45.380;11.028;2023-06-22T15:16:03;14.95;;;6.78;;
23434;SDS011;11890;45.380;11.028;2023-06-22T15:18:32;11.60;;;7.28;;